createdAt,value
2022-08-27T00:00:13.606Z,0.00
2022-08-27T00:01:13.956Z,0.00
2022-08-27T00:02:14.381Z,0.00
2022-08-27T00:03:14.662Z,0.00
2022-08-27T00:04:15.107Z,0.00
2022-08-27T00:05:15.359Z,0.00
2022-08-27T00:06:15.712Z,0.00
2022-08-27T00:07:16.067Z,0.00
2022-08-27T00:08:16.429Z,0.00
2022-08-27T00:09:16.795Z,0.00
2022-08-27T00:10:17.141Z,0.00
2022-08-27T00:11:17.497Z,0.00
2022-08-27T00:12:17.859Z,0.00
2022-08-27T00:13:18.201Z,0.00
2022-08-27T00:14:18.621Z,0.00
2022-08-27T00:15:18.932Z,0.00
2022-08-27T00:16:19.293Z,0.00
2022-08-27T00:17:19.622Z,0.00
2022-08-27T00:18:22.669Z,0.00
2022-08-27T00:19:20.357Z,0.00
2022-08-27T00:20:20.726Z,0.00
2022-08-27T00:21:21.075Z,0.00
2022-08-27T00:22:21.459Z,0.00
2022-08-27T00:23:21.823Z,0.00
2022-08-27T00:24:22.204Z,0.00
2022-08-27T00:25:22.526Z,0.00
2022-08-27T00:26:22.883Z,0.00
2022-08-27T00:27:23.232Z,0.00
2022-08-27T00:28:23.580Z,0.00
2022-08-27T00:29:23.954Z,0.00
2022-08-27T00:30:24.369Z,0.00
2022-08-27T00:31:27.265Z,0.00
2022-08-27T00:32:25.005Z,0.00
2022-08-27T00:33:25.358Z,0.00
2022-08-27T00:34:25.719Z,0.00
2022-08-27T00:35:26.063Z,0.00
2022-08-27T00:36:26.403Z,0.00
2022-08-27T00:37:26.787Z,0.00
2022-08-27T00:38:27.140Z,0.00
2022-08-27T00:39:27.508Z,0.00
2022-08-27T00:40:27.919Z,0.00
2022-08-27T00:41:28.314Z,0.00
2022-08-27T00:42:29.518Z,0.00
2022-08-27T00:43:28.979Z,0.00
2022-08-27T00:44:29.342Z,0.00
2022-08-27T00:45:29.719Z,0.00
2022-08-27T00:46:30.042Z,0.00
2022-08-27T00:47:30.391Z,0.00
2022-08-27T00:48:30.747Z,0.00
2022-08-27T00:49:31.122Z,0.00
2022-08-27T00:50:31.464Z,0.00
2022-08-27T00:51:31.806Z,0.00
2022-08-27T00:52:32.186Z,0.00
2022-08-27T00:53:32.572Z,0.00
2022-08-27T00:54:32.972Z,0.00
2022-08-27T00:55:33.290Z,0.00
2022-08-27T00:56:33.671Z,0.00
2022-08-27T00:57:34.014Z,0.00
2022-08-27T00:58:34.393Z,0.00
2022-08-27T00:59:34.756Z,0.00
2022-08-27T01:00:35.224Z,0.00
2022-08-27T01:01:35.905Z,0.00
2022-08-27T01:02:35.904Z,0.00
2022-08-27T01:03:36.190Z,0.00
2022-08-27T01:04:36.603Z,0.00
2022-08-27T01:05:36.923Z,0.00
2022-08-27T01:06:37.289Z,0.00
2022-08-27T01:07:37.641Z,0.00
2022-08-27T01:08:37.983Z,0.00
2022-08-27T01:09:38.375Z,0.00
2022-08-27T01:10:38.745Z,0.00
2022-08-27T01:11:39.076Z,0.00
2022-08-27T01:12:39.497Z,0.00
2022-08-27T01:13:54.474Z,0.00
2022-08-27T01:14:40.241Z,0.00
2022-08-27T01:15:40.593Z,0.00
2022-08-27T01:16:41.027Z,0.00
2022-08-27T01:17:41.278Z,0.00
2022-08-27T01:18:41.671Z,0.00
2022-08-27T01:19:42.065Z,0.00
2022-08-27T01:20:42.408Z,0.00
2022-08-27T01:21:42.762Z,0.00
2022-08-27T01:22:43.112Z,0.00
2022-08-27T01:23:43.453Z,0.00
2022-08-27T01:24:44.069Z,0.00
2022-08-27T01:25:44.168Z,0.00
2022-08-27T01:26:44.563Z,0.00
2022-08-27T01:27:44.900Z,0.00
2022-08-27T01:28:45.295Z,0.00
2022-08-27T01:29:45.635Z,0.00
2022-08-27T01:30:45.999Z,0.00
2022-08-27T01:31:46.404Z,0.00
2022-08-27T01:32:46.717Z,0.00
2022-08-27T01:33:47.061Z,0.00
2022-08-27T01:34:47.431Z,0.00
2022-08-27T01:35:47.779Z,0.00
2022-08-27T01:36:48.169Z,0.00
2022-08-27T01:37:48.491Z,0.00
2022-08-27T01:38:48.851Z,0.00
2022-08-27T01:39:49.215Z,0.00
2022-08-27T01:40:49.579Z,0.00
2022-08-27T01:41:52.435Z,0.00
2022-08-27T01:42:50.301Z,0.00
2022-08-27T01:43:50.687Z,0.00
2022-08-27T01:44:51.051Z,0.00
2022-08-27T01:45:51.387Z,0.00
2022-08-27T01:46:51.772Z,0.00
2022-08-27T01:47:52.085Z,0.00
2022-08-27T01:48:52.475Z,0.00
2022-08-27T01:49:52.824Z,0.00
2022-08-27T01:50:53.192Z,0.00
2022-08-27T01:51:53.551Z,0.00
2022-08-27T01:52:53.907Z,0.00
2022-08-27T01:53:54.289Z,0.00
2022-08-27T01:54:54.667Z,0.00
2022-08-27T01:55:54.997Z,0.00
2022-08-27T01:56:55.346Z,0.00
2022-08-27T01:57:55.732Z,0.00
2022-08-27T01:58:56.096Z,0.00
2022-08-27T01:59:56.466Z,0.00
2022-08-27T02:00:56.978Z,0.00
2022-08-27T02:01:57.240Z,0.00
2022-08-27T02:02:57.601Z,0.00
2022-08-27T02:03:57.924Z,0.00
2022-08-27T02:04:58.335Z,0.00
2022-08-27T02:05:58.629Z,0.00
2022-08-27T02:06:58.979Z,0.00
2022-08-27T02:07:59.321Z,0.00
2022-08-27T02:08:59.700Z,0.00
2022-08-27T02:10:00.106Z,0.00
2022-08-27T02:11:00.407Z,0.00
2022-08-27T02:12:00.781Z,0.00
2022-08-27T02:13:01.188Z,0.00
2022-08-27T02:14:01.534Z,0.00
2022-08-27T02:15:01.957Z,0.00
2022-08-27T02:16:02.295Z,0.00
2022-08-27T02:17:02.624Z,0.00
2022-08-27T02:18:03.123Z,0.00
2022-08-27T02:19:03.332Z,0.00
2022-08-27T02:20:03.705Z,0.00
2022-08-27T02:21:04.106Z,0.00
2022-08-27T02:22:04.417Z,0.00
2022-08-27T02:23:04.809Z,0.00
2022-08-27T02:24:05.155Z,0.00
2022-08-27T02:25:05.520Z,0.00
2022-08-27T02:26:05.843Z,0.00
2022-08-27T02:27:06.211Z,0.00
2022-08-27T02:28:06.686Z,0.00
2022-08-27T02:29:06.931Z,0.00
2022-08-27T02:30:07.307Z,0.00
2022-08-27T02:31:07.752Z,0.00
2022-08-27T02:32:08.034Z,0.00
2022-08-27T02:33:08.436Z,0.00
2022-08-27T02:34:08.778Z,0.00
2022-08-27T02:35:09.143Z,0.00
2022-08-27T02:36:09.513Z,0.00
2022-08-27T02:37:09.875Z,0.00
2022-08-27T02:38:10.413Z,0.00
2022-08-27T02:39:10.618Z,0.00
2022-08-27T02:40:10.998Z,0.00
2022-08-27T02:41:11.340Z,0.00
2022-08-27T02:42:11.693Z,0.00
2022-08-27T02:43:15.835Z,0.00
2022-08-27T02:44:13.826Z,0.00
2022-08-27T02:45:12.818Z,0.00
2022-08-27T02:46:13.279Z,0.00
2022-08-27T02:47:13.539Z,0.00
2022-08-27T02:48:13.898Z,0.00
2022-08-27T02:49:14.287Z,0.00
2022-08-27T02:50:14.607Z,0.00
2022-08-27T02:51:15.001Z,0.00
2022-08-27T02:52:15.316Z,0.00
2022-08-27T02:53:15.680Z,0.00
2022-08-27T02:54:16.054Z,0.00
2022-08-27T02:55:17.397Z,0.00
2022-08-27T02:56:21.677Z,0.00
2022-08-27T02:57:17.133Z,0.00
2022-08-27T02:58:17.479Z,0.00
2022-08-27T02:59:17.830Z,0.00
2022-08-27T03:00:18.219Z,0.00
2022-08-27T03:01:18.563Z,0.00
2022-08-27T03:02:18.991Z,0.00
2022-08-27T03:03:19.305Z,0.00
2022-08-27T03:04:19.655Z,0.00
2022-08-27T03:05:26.026Z,0.00
2022-08-27T03:06:20.385Z,0.00
2022-08-27T03:07:20.720Z,0.00
2022-08-27T03:08:25.669Z,0.00
2022-08-27T03:09:21.442Z,0.00
2022-08-27T03:10:21.798Z,0.00
2022-08-27T03:11:22.158Z,0.00
2022-08-27T03:12:22.890Z,0.00
2022-08-27T03:13:22.891Z,0.00
2022-08-27T03:14:23.257Z,0.00
2022-08-27T03:15:23.597Z,0.00
2022-08-27T03:16:24.077Z,0.00
2022-08-27T03:17:24.336Z,0.00
2022-08-27T03:18:24.698Z,0.00
2022-08-27T03:19:25.044Z,0.00
2022-08-27T03:20:25.429Z,0.00
2022-08-27T03:21:25.787Z,0.00
2022-08-27T03:22:26.197Z,0.00
2022-08-27T03:23:26.506Z,0.00
2022-08-27T03:24:26.890Z,0.00
2022-08-27T03:25:27.259Z,0.00
2022-08-27T03:26:27.632Z,0.00
2022-08-27T03:27:27.971Z,0.00
2022-08-27T03:28:28.329Z,0.00
2022-08-27T03:29:28.695Z,0.00
2022-08-27T03:30:29.030Z,0.00
2022-08-27T03:31:29.495Z,0.00
2022-08-27T03:32:29.755Z,0.00
2022-08-27T03:33:30.098Z,0.00
2022-08-27T03:34:30.459Z,0.00
2022-08-27T03:35:30.847Z,0.00
2022-08-27T03:36:31.195Z,0.00
2022-08-27T03:37:31.546Z,0.00
2022-08-27T03:38:31.941Z,0.00
2022-08-27T03:39:32.244Z,0.00
2022-08-27T03:40:32.711Z,0.00
2022-08-27T03:41:53.957Z,0.00
2022-08-27T03:42:33.369Z,0.00
2022-08-27T03:43:33.726Z,0.00
2022-08-27T03:44:34.071Z,0.00
2022-08-27T03:45:52.785Z,0.00
2022-08-27T03:46:34.865Z,0.00
2022-08-27T03:47:35.175Z,0.00
2022-08-27T03:48:35.562Z,0.00
2022-08-27T03:49:35.933Z,0.00
2022-08-27T03:50:36.315Z,0.00
2022-08-27T03:51:36.722Z,0.00
2022-08-27T03:52:37.056Z,0.00
2022-08-27T03:53:37.420Z,0.00
2022-08-27T03:54:37.553Z,1.00
2022-08-27T03:55:37.842Z,1.00
2022-08-27T03:56:38.208Z,0.00
2022-08-27T03:57:38.313Z,2.00
2022-08-27T03:58:39.072Z,1.00
2022-08-27T03:59:38.765Z,3.00
2022-08-27T04:00:38.936Z,5.00
2022-08-27T04:01:39.295Z,4.00
2022-08-27T04:02:39.436Z,5.00
2022-08-27T04:03:39.595Z,4.00
2022-08-27T04:04:39.838Z,6.00
2022-08-27T04:05:40.014Z,5.00
2022-08-27T04:06:40.264Z,8.00
2022-08-27T04:07:40.386Z,11.00
2022-08-27T04:08:40.548Z,11.00
2022-08-27T04:09:40.826Z,13.00
2022-08-27T04:10:41.133Z,15.00
2022-08-27T04:11:41.466Z,17.00
2022-08-27T04:12:41.596Z,17.00
2022-08-27T04:13:41.778Z,17.00
2022-08-27T04:14:42.066Z,18.00
2022-08-27T04:15:42.397Z,20.00
2022-08-27T04:16:42.559Z,22.00
2022-08-27T04:17:42.821Z,24.00
2022-08-27T04:18:43.001Z,26.00
2022-08-27T04:19:43.191Z,28.00
2022-08-27T04:20:43.484Z,29.00
2022-08-27T04:21:43.782Z,36.00
2022-08-27T04:22:43.938Z,41.00
2022-08-27T04:23:44.113Z,45.00
2022-08-27T04:24:44.427Z,52.00
2022-08-27T04:25:44.703Z,59.00
2022-08-27T04:26:44.900Z,68.00
2022-08-27T04:27:45.049Z,87.00
2022-08-27T04:28:48.676Z,99.00
2022-08-27T04:29:45.525Z,112.00
2022-08-27T04:30:45.711Z,118.00
2022-08-27T04:31:46.008Z,124.00
2022-08-27T04:32:46.283Z,129.00
2022-08-27T04:33:51.152Z,142.00
2022-08-27T04:34:46.658Z,145.00
2022-08-27T04:35:46.923Z,142.00
2022-08-27T04:36:47.105Z,148.00
2022-08-27T04:37:47.437Z,153.00
2022-08-27T04:38:47.569Z,161.00
2022-08-27T04:39:50.302Z,173.00
2022-08-27T04:40:47.931Z,187.00
2022-08-27T04:41:48.239Z,219.00
2022-08-27T04:42:48.394Z,246.00
2022-08-27T04:43:48.587Z,258.00
2022-08-27T04:44:48.787Z,258.00
2022-08-27T04:45:48.919Z,244.00
2022-08-27T04:46:49.459Z,231.00
2022-08-27T04:47:49.297Z,218.00
2022-08-27T04:48:49.605Z,212.00
2022-08-27T04:49:49.754Z,194.00
2022-08-27T04:50:50.067Z,199.00
2022-08-27T04:51:50.277Z,212.00
2022-08-27T04:52:50.414Z,232.00
2022-08-27T04:53:50.598Z,248.00
2022-08-27T04:54:50.795Z,267.00
2022-08-27T04:55:50.957Z,265.00
2022-08-27T04:56:51.280Z,281.00
2022-08-27T04:57:51.412Z,308.00
2022-08-27T04:58:51.609Z,342.00
2022-08-27T04:59:51.803Z,371.00
2022-08-27T05:00:52.119Z,379.00
2022-08-27T05:01:52.391Z,394.00
2022-08-27T05:02:52.465Z,435.00
2022-08-27T05:03:52.656Z,449.00
2022-08-27T05:04:52.882Z,455.00
2022-08-27T05:05:53.036Z,437.00
2022-08-27T05:06:54.885Z,440.00
2022-08-27T05:07:53.405Z,475.00
2022-08-27T05:08:53.583Z,513.00
2022-08-27T05:09:53.793Z,518.00
2022-08-27T05:10:53.959Z,532.00
2022-08-27T05:11:54.130Z,586.00
2022-08-27T05:12:59.340Z,645.00
2022-08-27T05:13:54.452Z,678.00
2022-08-27T05:14:54.641Z,676.00
2022-08-27T05:15:54.977Z,674.00
2022-08-27T05:16:55.117Z,698.00
2022-08-27T05:17:55.289Z,728.00
2022-08-27T05:18:55.456Z,749.00
2022-08-27T05:19:55.666Z,857.00
2022-08-27T05:20:55.814Z,966.00
2022-08-27T05:21:55.992Z,1000.00
2022-08-27T05:22:56.135Z,1014.00
2022-08-27T05:23:56.445Z,1025.00
2022-08-27T05:24:56.618Z,1056.00
2022-08-27T05:25:56.786Z,1074.00
2022-08-27T05:26:56.978Z,1045.00
2022-08-27T05:27:57.143Z,1009.00
2022-08-27T05:28:57.336Z,1006.00
2022-08-27T05:29:57.508Z,1018.00
2022-08-27T05:30:57.706Z,1014.00
2022-08-27T05:31:57.864Z,967.00
2022-08-27T05:32:58.048Z,917.00
2022-08-27T05:33:58.340Z,930.00
2022-08-27T05:34:58.522Z,900.00
2022-08-27T05:35:58.721Z,852.00
2022-08-27T05:36:58.916Z,829.00
2022-08-27T05:37:59.070Z,837.00
2022-08-27T05:38:59.263Z,879.00
2022-08-27T05:39:59.469Z,984.00
2022-08-27T05:40:59.653Z,1036.00
2022-08-27T05:41:59.841Z,1166.00
2022-08-27T05:43:00.020Z,1332.00
2022-08-27T05:44:00.207Z,1394.00
2022-08-27T05:45:00.406Z,1366.00
2022-08-27T05:46:00.689Z,1251.00
2022-08-27T05:47:00.799Z,1101.00
2022-08-27T05:48:00.960Z,924.00
2022-08-27T05:49:01.125Z,919.00
2022-08-27T05:50:01.325Z,1001.00
2022-08-27T05:51:01.536Z,1010.00
2022-08-27T05:52:01.736Z,1074.00
2022-08-27T05:53:01.913Z,1109.00
2022-08-27T05:54:05.634Z,1019.00
2022-08-27T05:55:02.279Z,1021.00
2022-08-27T05:56:02.451Z,1081.00
2022-08-27T05:57:02.767Z,1004.00
2022-08-27T05:58:02.936Z,1184.00
2022-08-27T05:59:03.108Z,1295.00
2022-08-27T06:00:03.302Z,1337.00
2022-08-27T06:01:06.982Z,1383.00
2022-08-27T06:02:03.697Z,1393.00
2022-08-27T06:03:03.903Z,1361.00
2022-08-27T06:04:04.138Z,1379.00
2022-08-27T06:05:04.305Z,1350.00
2022-08-27T06:06:04.446Z,1238.00
2022-08-27T06:07:04.681Z,1216.00
2022-08-27T06:08:04.800Z,1253.00
2022-08-27T06:09:04.965Z,1274.00
2022-08-27T06:10:05.147Z,1280.00
2022-08-27T06:11:05.313Z,1253.00
2022-08-27T06:12:05.497Z,1308.00
2022-08-27T06:13:05.670Z,1346.00
2022-08-27T06:14:05.862Z,1225.00
2022-08-27T06:15:06.033Z,1063.00
2022-08-27T06:16:06.681Z,1153.00
2022-08-27T06:17:06.444Z,1240.00
2022-08-27T06:18:06.609Z,1325.00
2022-08-27T06:19:06.781Z,1493.00
2022-08-27T06:20:06.959Z,1721.00
2022-08-27T06:21:07.142Z,1893.00
2022-08-27T06:22:10.571Z,1909.00
2022-08-27T06:23:07.516Z,1891.00
2022-08-27T06:24:07.772Z,1743.00
2022-08-27T06:25:07.911Z,1794.00
2022-08-27T06:26:08.110Z,1798.00
2022-08-27T06:27:08.304Z,1604.00
2022-08-27T06:28:08.482Z,1416.00
2022-08-27T06:29:08.675Z,1364.00
2022-08-27T06:30:08.867Z,1684.00
2022-08-27T06:31:09.084Z,1873.00
2022-08-27T06:32:09.253Z,1892.00
2022-08-27T06:33:09.505Z,1912.00
2022-08-27T06:34:09.640Z,1949.00
2022-08-27T06:35:09.825Z,2252.00
2022-08-27T06:36:10.069Z,2500.00
2022-08-27T06:37:10.234Z,2763.00
2022-08-27T06:38:10.609Z,2618.00
2022-08-27T06:39:10.588Z,2213.00
2022-08-27T06:40:10.836Z,2172.00
2022-08-27T06:41:23.193Z,2372.00
2022-08-27T06:42:11.235Z,2443.00
2022-08-27T06:43:11.352Z,2779.00
2022-08-27T06:44:11.533Z,2980.00
2022-08-27T06:45:11.745Z,2809.00
2022-08-27T06:46:11.930Z,2849.00
2022-08-27T06:47:12.109Z,3146.00
2022-08-27T06:48:12.593Z,3557.00
2022-08-27T06:49:12.532Z,3904.00
2022-08-27T06:50:16.409Z,4118.00
2022-08-27T06:51:12.865Z,4269.00
2022-08-27T06:52:13.041Z,4162.00
2022-08-27T06:53:13.218Z,4026.00
2022-08-27T06:54:13.439Z,3845.00
2022-08-27T06:55:13.617Z,3702.00
2022-08-27T06:56:13.830Z,3973.00
2022-08-27T06:57:14.057Z,4050.00
2022-08-27T06:58:14.169Z,4041.00
2022-08-27T06:59:14.405Z,4010.00
2022-08-27T07:00:14.561Z,4124.00
2022-08-27T07:01:14.867Z,4144.00
2022-08-27T07:02:15.036Z,4001.00
2022-08-27T07:03:15.138Z,3953.00
2022-08-27T07:04:15.293Z,4009.00
2022-08-27T07:05:15.471Z,4055.00
2022-08-27T07:06:15.630Z,4029.00
2022-08-27T07:07:28.015Z,4194.00
2022-08-27T07:08:16.010Z,4562.00
2022-08-27T07:09:16.185Z,4389.00
2022-08-27T07:10:16.378Z,4432.00
2022-08-27T07:11:16.628Z,4379.00
2022-08-27T07:12:16.790Z,4422.00
2022-08-27T07:13:16.944Z,4244.00
2022-08-27T07:14:17.135Z,4268.00
2022-08-27T07:15:17.336Z,4530.00
2022-08-27T07:16:17.582Z,4256.00
2022-08-27T07:17:17.743Z,4119.00
2022-08-27T07:18:17.953Z,4296.00
2022-08-27T07:19:18.156Z,4110.00
2022-08-27T07:20:18.315Z,4118.00
2022-08-27T07:21:18.510Z,4022.00
2022-08-27T07:22:18.737Z,4053.00
2022-08-27T07:23:18.929Z,4232.00
2022-08-27T07:24:19.107Z,4687.00
2022-08-27T07:25:19.287Z,5429.00
2022-08-27T07:26:19.573Z,6088.00
2022-08-27T07:27:19.697Z,6469.00
2022-08-27T07:28:19.880Z,6848.00
2022-08-27T07:29:20.042Z,6752.00
2022-08-27T07:30:20.227Z,6690.00
2022-08-27T07:31:20.460Z,7217.00
2022-08-27T07:32:20.676Z,8013.00
2022-08-27T07:33:20.799Z,8337.00
2022-08-27T07:34:21.004Z,8167.00
2022-08-27T07:35:21.199Z,7873.00
2022-08-27T07:36:21.368Z,8184.00
2022-08-27T07:37:21.565Z,8486.00
2022-08-27T07:38:21.730Z,8197.00
2022-08-27T07:39:21.908Z,8303.00
2022-08-27T07:40:22.173Z,8011.00
2022-08-27T07:41:22.280Z,7716.00
2022-08-27T07:42:22.516Z,7190.00
2022-08-27T07:43:22.653Z,6673.00
2022-08-27T07:44:25.927Z,6434.00
2022-08-27T07:45:23.007Z,6247.00
2022-08-27T07:46:23.262Z,5646.00
2022-08-27T07:47:23.428Z,5246.00
2022-08-27T07:48:23.572Z,5176.00
2022-08-27T07:49:23.763Z,4907.00
2022-08-27T07:50:23.990Z,4377.00
2022-08-27T07:51:24.164Z,4336.00
2022-08-27T07:52:26.540Z,4270.00
2022-08-27T07:53:24.584Z,4053.00
2022-08-27T07:54:25.466Z,3960.00
2022-08-27T07:55:24.963Z,3825.00
2022-08-27T07:56:25.160Z,3803.00
2022-08-27T07:57:25.369Z,3805.00
2022-08-27T07:58:25.563Z,3816.00
2022-08-27T07:59:26.156Z,3927.00
2022-08-27T08:00:25.972Z,3862.00
2022-08-27T08:01:26.196Z,3894.00
2022-08-27T08:02:26.374Z,4301.00
2022-08-27T08:03:26.527Z,4489.00
2022-08-27T08:04:26.778Z,4463.00
2022-08-27T08:05:26.886Z,4426.00
2022-08-27T08:06:27.069Z,4707.00
2022-08-27T08:07:27.335Z,4592.00
2022-08-27T08:08:27.467Z,4574.00
2022-08-27T08:09:27.655Z,4338.00
2022-08-27T08:10:30.413Z,4185.00
2022-08-27T08:11:28.042Z,4082.00
2022-08-27T08:12:28.281Z,4031.00
2022-08-27T08:13:28.450Z,3973.00
2022-08-27T08:14:28.668Z,3948.00
2022-08-27T08:15:28.852Z,3993.00
2022-08-27T08:16:31.733Z,4226.00
2022-08-27T08:17:29.283Z,4330.00
2022-08-27T08:18:29.443Z,4400.00
2022-08-27T08:19:29.615Z,4484.00
2022-08-27T08:20:54.131Z,4264.00
2022-08-27T08:21:30.000Z,4196.00
2022-08-27T08:22:30.194Z,4345.00
2022-08-27T08:23:30.332Z,4414.00
2022-08-27T08:24:30.522Z,4483.00
2022-08-27T08:25:38.406Z,4301.00
2022-08-27T08:26:30.889Z,4126.00
2022-08-27T08:27:31.100Z,4087.00
2022-08-27T08:28:31.297Z,4031.00
2022-08-27T08:29:31.504Z,3835.00
2022-08-27T08:30:35.320Z,3660.00
2022-08-27T08:31:31.848Z,3638.00
2022-08-27T08:32:32.072Z,3540.00
2022-08-27T08:33:32.214Z,3470.00
2022-08-27T08:34:32.404Z,3592.00
2022-08-27T08:35:38.622Z,3800.00
2022-08-27T08:36:32.799Z,3891.00
2022-08-27T08:37:32.981Z,3817.00
2022-08-27T08:38:33.171Z,3943.00
2022-08-27T08:39:33.371Z,4198.00
2022-08-27T08:40:33.604Z,4151.00
2022-08-27T08:41:33.737Z,4185.00
2022-08-27T08:42:33.974Z,4245.00
2022-08-27T08:43:34.122Z,4340.00
2022-08-27T08:44:34.299Z,4391.00
2022-08-27T08:45:34.497Z,4343.00
2022-08-27T08:46:34.683Z,4404.00
2022-08-27T08:47:34.888Z,4389.00
2022-08-27T08:48:35.082Z,4322.00
2022-08-27T08:49:35.291Z,4132.00
2022-08-27T08:50:35.484Z,4170.00
2022-08-27T08:51:35.697Z,4113.00
2022-08-27T08:52:35.884Z,3818.00
2022-08-27T08:53:36.076Z,3772.00
2022-08-27T08:54:36.287Z,3763.00
2022-08-27T08:55:36.450Z,4053.00
2022-08-27T08:56:36.639Z,4291.00
2022-08-27T08:57:36.841Z,4238.00
2022-08-27T08:58:37.028Z,4174.00
2022-08-27T08:59:37.227Z,3944.00
2022-08-27T09:00:37.422Z,3768.00
2022-08-27T09:01:37.671Z,3733.00
2022-08-27T09:02:37.812Z,3860.00
2022-08-27T09:03:38.046Z,3838.00
2022-08-27T09:04:38.178Z,3870.00
2022-08-27T09:05:38.408Z,3940.00
2022-08-27T09:06:38.575Z,3956.00
2022-08-27T09:07:38.822Z,4011.00
2022-08-27T09:08:41.652Z,4291.00
2022-08-27T09:09:39.137Z,4511.00
2022-08-27T09:10:39.334Z,4599.00
2022-08-27T09:11:39.523Z,5103.00
2022-08-27T09:12:39.733Z,5313.00
2022-08-27T09:13:39.889Z,5063.00
2022-08-27T09:14:40.098Z,5233.00
2022-08-27T09:15:40.281Z,5575.00
2022-08-27T09:16:40.555Z,5757.00
2022-08-27T09:17:40.675Z,5726.00
2022-08-27T09:18:40.975Z,5626.00
2022-08-27T09:19:41.635Z,5786.00
2022-08-27T09:20:41.221Z,5897.00
2022-08-27T09:21:41.401Z,6269.00
2022-08-27T09:22:41.615Z,6303.00
2022-08-27T09:23:41.791Z,6035.00
2022-08-27T09:24:41.984Z,6011.00
2022-08-27T09:25:42.176Z,6154.00
2022-08-27T09:26:42.362Z,6240.00
2022-08-27T09:27:42.568Z,6223.00
2022-08-27T09:28:42.775Z,6094.00
2022-08-27T09:29:42.950Z,6404.00
2022-08-27T09:30:43.212Z,6878.00
2022-08-27T09:31:43.310Z,7019.00
2022-08-27T09:32:43.503Z,7068.00
2022-08-27T09:33:56.034Z,7391.00
2022-08-27T09:34:43.891Z,7535.00
2022-08-27T09:35:44.091Z,7540.00
2022-08-27T09:36:44.268Z,7784.00
2022-08-27T09:37:44.487Z,7781.00
2022-08-27T09:38:44.641Z,7560.00
2022-08-27T09:39:44.842Z,7593.00
2022-08-27T09:40:45.056Z,8097.00
2022-08-27T09:41:45.221Z,8573.00
2022-08-27T09:42:46.035Z,8914.00
2022-08-27T09:43:45.609Z,9077.00
2022-08-27T09:44:49.163Z,9137.00
2022-08-27T09:45:46.183Z,9186.00
2022-08-27T09:46:46.155Z,9351.00
2022-08-27T09:47:46.369Z,9254.00
2022-08-27T09:48:46.522Z,9153.00
2022-08-27T09:49:46.696Z,9107.00
2022-08-27T09:50:46.927Z,9100.00
2022-08-27T09:51:47.060Z,9134.00
2022-08-27T09:52:47.269Z,8891.00
2022-08-27T09:53:47.424Z,9109.00
2022-08-27T09:54:47.665Z,9549.00
2022-08-27T09:55:47.814Z,9534.00
2022-08-27T09:56:48.002Z,9031.00
2022-08-27T09:57:48.204Z,8808.00
2022-08-27T09:58:48.388Z,8225.00
2022-08-27T09:59:48.584Z,7646.00
2022-08-27T10:00:48.823Z,7603.00
2022-08-27T10:01:49.008Z,7755.00
2022-08-27T10:02:49.176Z,7887.00
2022-08-27T10:03:49.410Z,7688.00
2022-08-27T10:04:50.774Z,7159.00
2022-08-27T10:05:49.724Z,6963.00
2022-08-27T10:06:49.927Z,6819.00
2022-08-27T10:07:50.174Z,6893.00
2022-08-27T10:08:50.310Z,6644.00
2022-08-27T10:09:50.505Z,6399.00
2022-08-27T10:10:50.689Z,6396.00
2022-08-27T10:11:50.869Z,6282.00
2022-08-27T10:12:51.095Z,6066.00
2022-08-27T10:13:51.257Z,6136.00
2022-08-27T10:14:51.429Z,6127.00
2022-08-27T10:15:51.595Z,6010.00
2022-08-27T10:16:51.836Z,6118.00
2022-08-27T10:17:52.008Z,6427.00
2022-08-27T10:18:52.155Z,6883.00
2022-08-27T10:19:52.347Z,7418.00
2022-08-27T10:20:52.549Z,7855.00
2022-08-27T10:21:52.732Z,8160.00
2022-08-27T10:22:52.942Z,8445.00
2022-08-27T10:23:53.080Z,8665.00
2022-08-27T10:24:53.286Z,8952.00
2022-08-27T10:25:53.472Z,9189.00
2022-08-27T10:26:53.669Z,9059.00
2022-08-27T10:27:53.875Z,8689.00
2022-08-27T10:28:54.076Z,8728.00
2022-08-27T10:29:55.149Z,8800.00
2022-08-27T10:30:54.445Z,8632.00
2022-08-27T10:31:54.720Z,8690.00
2022-08-27T10:32:55.203Z,9116.00
2022-08-27T10:33:54.999Z,9755.00
2022-08-27T10:34:55.210Z,10341.00
2022-08-27T10:35:55.410Z,10801.00
2022-08-27T10:36:55.626Z,10846.00
2022-08-27T10:37:55.817Z,10756.00
2022-08-27T10:38:56.013Z,11097.00
2022-08-27T10:39:56.225Z,11315.00
2022-08-27T10:40:56.377Z,11244.00
2022-08-27T10:41:56.578Z,11149.00
2022-08-27T10:42:57.875Z,11008.00
2022-08-27T10:43:56.999Z,10910.00
2022-08-27T10:44:57.178Z,10536.00
2022-08-27T10:45:57.499Z,10052.00
2022-08-27T10:46:57.557Z,9462.00
2022-08-27T10:47:57.762Z,8780.00
2022-08-27T10:48:57.934Z,8629.00
2022-08-27T10:49:58.124Z,8655.00
2022-08-27T10:50:58.337Z,8743.00
2022-08-27T10:51:58.509Z,9124.00
2022-08-27T10:52:58.702Z,9595.00
2022-08-27T10:53:58.857Z,9877.00
2022-08-27T10:54:59.060Z,10135.00
2022-08-27T10:55:59.254Z,10468.00
2022-08-27T10:57:22.859Z,10893.00
2022-08-27T10:58:01.205Z,11419.00
2022-08-27T10:58:59.869Z,11867.00
2022-08-27T11:00:00.094Z,12075.00
2022-08-27T11:01:00.429Z,12143.00
2022-08-27T11:02:00.596Z,12085.00
2022-08-27T11:03:00.736Z,11888.00
2022-08-27T11:04:00.924Z,11949.00
2022-08-27T11:05:01.099Z,12167.00
2022-08-27T11:06:01.324Z,12312.00
2022-08-27T11:07:01.528Z,12360.00
2022-08-27T11:08:01.744Z,12508.00
2022-08-27T11:09:07.461Z,12439.00
2022-08-27T11:10:02.089Z,12151.00
2022-08-27T11:11:25.975Z,11796.00
2022-08-27T11:12:17.882Z,11548.00
2022-08-27T11:13:02.719Z,11228.00
2022-08-27T11:14:02.849Z,10352.00
2022-08-27T11:15:03.048Z,9540.00
2022-08-27T11:16:03.316Z,9010.00
2022-08-27T11:17:03.459Z,9175.00
2022-08-27T11:18:03.624Z,9806.00
2022-08-27T11:19:03.809Z,10127.00
2022-08-27T11:20:04.012Z,10084.00
2022-08-27T11:21:04.216Z,10035.00
2022-08-27T11:22:04.443Z,10205.00
2022-08-27T11:23:04.665Z,10610.00
2022-08-27T11:24:04.835Z,11836.00
2022-08-27T11:25:05.057Z,13526.00
2022-08-27T11:26:05.265Z,14964.00
2022-08-27T11:27:05.447Z,16363.00
2022-08-27T11:28:05.675Z,17707.00
2022-08-27T11:29:05.865Z,18704.00
2022-08-27T11:30:06.063Z,18938.00
2022-08-27T11:31:06.364Z,18250.00
2022-08-27T11:32:06.491Z,17152.00
2022-08-27T11:33:06.698Z,15824.00
2022-08-27T11:34:06.904Z,15070.00
2022-08-27T11:35:07.069Z,15049.00
2022-08-27T11:36:07.309Z,15626.00
2022-08-27T11:37:07.489Z,16454.00
2022-08-27T11:38:07.806Z,17538.00
2022-08-27T11:39:07.887Z,18985.00
2022-08-27T11:40:08.166Z,20373.00
2022-08-27T11:41:08.278Z,20460.00
2022-08-27T11:42:08.459Z,18918.00
2022-08-27T11:43:08.660Z,17856.00
2022-08-27T11:44:08.860Z,17643.00
2022-08-27T11:45:09.048Z,18188.00
2022-08-27T11:46:09.234Z,18075.00
2022-08-27T11:47:09.486Z,17701.00
2022-08-27T11:48:09.692Z,17550.00
2022-08-27T11:49:09.835Z,17420.00
2022-08-27T11:50:10.020Z,18199.00
2022-08-27T11:51:10.205Z,19237.00
2022-08-27T11:52:10.389Z,19700.00
2022-08-27T11:53:10.584Z,19693.00
2022-08-27T11:54:10.772Z,19097.00
2022-08-27T11:55:11.001Z,18661.00
2022-08-27T11:56:11.184Z,18520.00
2022-08-27T11:57:11.380Z,20506.00
2022-08-27T11:58:11.826Z,19617.00
2022-08-27T11:59:11.775Z,20214.00
2022-08-27T12:00:11.952Z,20315.00
2022-08-27T12:01:12.151Z,21572.00
2022-08-27T12:02:12.317Z,21689.00
2022-08-27T12:03:12.573Z,22298.00
2022-08-27T12:04:12.762Z,22607.00
2022-08-27T12:05:12.864Z,76708.00
2022-08-27T12:06:13.057Z,21642.00
2022-08-27T12:07:13.236Z,21164.00
2022-08-27T12:08:13.506Z,28044.00
2022-08-27T12:09:13.670Z,21799.00
2022-08-27T12:10:13.908Z,78137.00
2022-08-27T12:11:14.123Z,76637.00
2022-08-27T12:12:14.291Z,78330.00
2022-08-27T12:13:14.490Z,80109.00
2022-08-27T12:14:14.684Z,78827.00
2022-08-27T12:15:14.861Z,77076.00
2022-08-27T12:16:15.138Z,20928.00
2022-08-27T12:17:15.294Z,78855.00
2022-08-27T12:18:15.496Z,78724.00
2022-08-27T12:19:15.695Z,77688.00
2022-08-27T12:20:15.893Z,76389.00
2022-08-27T12:21:16.085Z,76186.00
2022-08-27T12:22:16.271Z,77159.00
2022-08-27T12:23:16.474Z,78131.00
2022-08-27T12:24:16.667Z,78190.00
2022-08-27T12:25:16.903Z,77574.00
2022-08-27T12:26:17.063Z,77456.00
2022-08-27T12:27:17.242Z,78943.00
2022-08-27T12:28:17.475Z,78654.00
2022-08-27T12:29:17.663Z,77454.00
2022-08-27T12:30:17.845Z,77798.00
2022-08-27T12:31:18.095Z,77362.00